sensor_id;sensor_type;location;lat;lon;timestamp;P1;durP1;ratioP1;P2;durP2;ratioP2
74626;SDS011;63132;52.268;5.192;2024-01-16T00:00:31;12.57;;;2.92;;
74626;SDS011;63132;52.268;5.192;2024-01-16T00:02:57;12.23;;;2.15;;
74626;SDS011;63132;52.268;5.192;2024-01-16T00:05:22;13.98;;;2.42;;
74626;SDS011;63132;52.268;5.192;2024-01-16T00:07:47;25.13;;;2.87;;
74626;SDS011;63132;52.268;5.192;2024-01-16T00:10:13;13.87;;;1.97;;
74626;SDS011;63132;52.268;5.192;2024-01-16T00:12:38;13.30;;;1.97;;
74626;SDS011;63132;52.268;5.192;2024-01-16T00:15:05;16.70;;;2.05;;
74626;SDS011;63132;52.268;5.192;2024-01-16T00:17:31;16.23;;;3.65;;
74626;SDS011;63132;52.268;5.192;2024-01-16T00:19:56;13.00;;;3.00;;
74626;SDS011;63132;52.268;5.192;2024-01-16T00:22:25;9.68;;;1.98;;
74626;SDS011;63132;52.268;5.192;2024-01-16T00:24:51;9.93;;;2.60;;
74626;SDS011;63132;52.268;5.192;2024-01-16T00:27:16;12.13;;;2.10;;
74626;SDS011;63132;52.268;5.192;2024-01-16T00:29:42;9.43;;;1.55;;
74626;SDS011;63132;52.268;5.192;2024-01-16T00:32:07;12.93;;;1.73;;
74626;SDS011;63132;52.268;5.192;2024-01-16T00:34:33;20.95;;;3.70;;
74626;SDS011;63132;52.268;5.192;2024-01-16T00:36:58;9.33;;;1.90;;
74626;SDS011;63132;52.268;5.192;2024-01-16T00:39:24;10.17;;;1.67;;
74626;SDS011;63132;52.268;5.192;2024-01-16T00:41:49;12.03;;;1.83;;
74626;SDS011;63132;52.268;5.192;2024-01-16T00:44:14;14.83;;;1.97;;
74626;SDS011;63132;52.268;5.192;2024-01-16T00:46:39;12.80;;;1.53;;
74626;SDS011;63132;52.268;5.192;2024-01-16T00:49:05;10.40;;;1.50;;
74626;SDS011;63132;52.268;5.192;2024-01-16T00:51:31;6.20;;;1.60;;
74626;SDS011;63132;52.268;5.192;2024-01-16T00:53:57;6.03;;;1.50;;
74626;SDS011;63132;52.268;5.192;2024-01-16T00:56:22;9.10;;;1.50;;
74626;SDS011;63132;52.268;5.192;2024-01-16T00:58:47;20.73;;;3.83;;
74626;SDS011;63132;52.268;5.192;2024-01-16T01:01:12;10.87;;;1.47;;
74626;SDS011;63132;52.268;5.192;2024-01-16T01:03:38;9.27;;;1.67;;
74626;SDS011;63132;52.268;5.192;2024-01-16T01:06:03;15.07;;;1.73;;
74626;SDS011;63132;52.268;5.192;2024-01-16T01:08:29;6.45;;;1.58;;
74626;SDS011;63132;52.268;5.192;2024-01-16T01:10:55;13.97;;;2.00;;
74626;SDS011;63132;52.268;5.192;2024-01-16T01:13:20;11.03;;;1.80;;
74626;SDS011;63132;52.268;5.192;2024-01-16T01:15:46;7.50;;;1.40;;
74626;SDS011;63132;52.268;5.192;2024-01-16T01:18:11;10.87;;;1.83;;
74626;SDS011;63132;52.268;5.192;2024-01-16T01:20:36;17.63;;;4.00;;
74626;SDS011;63132;52.268;5.192;2024-01-16T01:23:02;10.93;;;1.83;;
74626;SDS011;63132;52.268;5.192;2024-01-16T01:25:27;10.60;;;1.77;;
74626;SDS011;63132;52.268;5.192;2024-01-16T01:27:52;9.80;;;1.37;;
74626;SDS011;63132;52.268;5.192;2024-01-16T01:30:17;8.50;;;1.77;;
74626;SDS011;63132;52.268;5.192;2024-01-16T01:32:43;9.30;;;1.63;;
74626;SDS011;63132;52.268;5.192;2024-01-16T01:35:09;14.95;;;1.52;;
74626;SDS011;63132;52.268;5.192;2024-01-16T01:37:35;11.77;;;1.83;;
74626;SDS011;63132;52.268;5.192;2024-01-16T01:40:00;8.43;;;1.03;;
74626;SDS011;63132;52.268;5.192;2024-01-16T01:42:26;8.43;;;1.07;;
74626;SDS011;63132;52.268;5.192;2024-01-16T01:44:51;3.53;;;0.70;;
74626;SDS011;63132;52.268;5.192;2024-01-16T01:47:16;4.47;;;1.23;;
74626;SDS011;63132;52.268;5.192;2024-01-16T01:49:42;1.73;;;0.43;;
74626;SDS011;63132;52.268;5.192;2024-01-16T01:52:08;5.25;;;0.70;;
74626;SDS011;63132;52.268;5.192;2024-01-16T01:54:35;5.13;;;1.05;;
74626;SDS011;63132;52.268;5.192;2024-01-16T01:57:02;9.40;;;1.10;;
74626;SDS011;63132;52.268;5.192;2024-01-16T01:59:29;6.32;;;0.80;;
74626;SDS011;63132;52.268;5.192;2024-01-16T02:01:55;5.28;;;0.82;;
74626;SDS011;63132;52.268;5.192;2024-01-16T02:04:21;4.30;;;0.85;;
74626;SDS011;63132;52.268;5.192;2024-01-16T02:06:47;5.43;;;1.10;;
74626;SDS011;63132;52.268;5.192;2024-01-16T02:09:13;6.22;;;0.95;;
74626;SDS011;63132;52.268;5.192;2024-01-16T02:11:39;3.33;;;0.77;;
74626;SDS011;63132;52.268;5.192;2024-01-16T02:16:35;5.47;;;1.52;;
74626;SDS011;63132;52.268;5.192;2024-01-16T02:19:03;8.82;;;2.20;;
74626;SDS011;63132;52.268;5.192;2024-01-16T02:21:28;6.03;;;2.15;;
74626;SDS011;63132;52.268;5.192;2024-01-16T02:24:01;8.50;;;2.17;;
74626;SDS011;63132;52.268;5.192;2024-01-16T02:26:27;7.03;;;2.00;;
74626;SDS011;63132;52.268;5.192;2024-01-16T02:28:53;5.30;;;1.97;;
74626;SDS011;63132;52.268;5.192;2024-01-16T02:31:18;6.03;;;1.80;;
74626;SDS011;63132;52.268;5.192;2024-01-16T02:33:44;7.72;;;2.20;;
74626;SDS011;63132;52.268;5.192;2024-01-16T02:36:09;6.07;;;2.63;;
74626;SDS011;63132;52.268;5.192;2024-01-16T02:38:34;6.80;;;1.47;;
74626;SDS011;63132;52.268;5.192;2024-01-16T02:40:59;3.90;;;1.70;;
74626;SDS011;63132;52.268;5.192;2024-01-16T02:43:25;7.57;;;1.60;;
74626;SDS011;63132;52.268;5.192;2024-01-16T02:45:51;6.18;;;1.67;;
74626;SDS011;63132;52.268;5.192;2024-01-16T02:48:18;7.53;;;1.75;;
74626;SDS011;63132;52.268;5.192;2024-01-16T02:50:43;3.97;;;1.47;;
74626;SDS011;63132;52.268;5.192;2024-01-16T02:53:08;9.17;;;1.50;;
74626;SDS011;63132;52.268;5.192;2024-01-16T02:55:33;14.07;;;1.63;;
74626;SDS011;63132;52.268;5.192;2024-01-16T02:57:59;6.23;;;1.30;;
74626;SDS011;63132;52.268;5.192;2024-01-16T03:00:24;6.77;;;1.97;;
74626;SDS011;63132;52.268;5.192;2024-01-16T03:02:49;5.23;;;1.13;;
74626;SDS011;63132;52.268;5.192;2024-01-16T03:05:15;8.03;;;2.67;;
74626;SDS011;63132;52.268;5.192;2024-01-16T03:07:40;11.10;;;1.90;;
74626;SDS011;63132;52.268;5.192;2024-01-16T03:10:06;6.13;;;1.50;;
74626;SDS011;63132;52.268;5.192;2024-01-16T03:12:32;4.85;;;1.15;;
74626;SDS011;63132;52.268;5.192;2024-01-16T03:14:57;4.45;;;1.33;;
74626;SDS011;63132;52.268;5.192;2024-01-16T03:17:23;5.00;;;1.57;;
74626;SDS011;63132;52.268;5.192;2024-01-16T03:19:48;3.23;;;1.57;;
74626;SDS011;63132;52.268;5.192;2024-01-16T03:22:13;3.93;;;1.00;;
74626;SDS011;63132;52.268;5.192;2024-01-16T03:24:38;4.87;;;1.53;;
74626;SDS011;63132;52.268;5.192;2024-01-16T03:27:04;8.17;;;1.60;;
74626;SDS011;63132;52.268;5.192;2024-01-16T03:29:29;4.33;;;0.83;;
74626;SDS011;63132;52.268;5.192;2024-01-16T03:31:55;5.05;;;1.15;;
74626;SDS011;63132;52.268;5.192;2024-01-16T03:34:20;8.50;;;1.08;;
74626;SDS011;63132;52.268;5.192;2024-01-16T03:36:46;10.27;;;2.78;;
74626;SDS011;63132;52.268;5.192;2024-01-16T03:39:11;4.07;;;1.20;;
74626;SDS011;63132;52.268;5.192;2024-01-16T03:41:37;6.30;;;1.23;;
74626;SDS011;63132;52.268;5.192;2024-01-16T03:44:02;8.40;;;0.93;;
74626;SDS011;63132;52.268;5.192;2024-01-16T03:46:28;4.57;;;1.08;;
74626;SDS011;63132;52.268;5.192;2024-01-16T03:48:53;9.63;;;1.80;;
74626;SDS011;63132;52.268;5.192;2024-01-16T03:51:19;9.05;;;1.98;;
74626;SDS011;63132;52.268;5.192;2024-01-16T03:53:44;8.55;;;2.03;;
74626;SDS011;63132;52.268;5.192;2024-01-16T03:56:10;7.47;;;2.10;;
74626;SDS011;63132;52.268;5.192;2024-01-16T03:58:35;9.33;;;1.90;;
74626;SDS011;63132;52.268;5.192;2024-01-16T04:01:00;7.67;;;2.03;;
74626;SDS011;63132;52.268;5.192;2024-01-16T04:03:26;7.20;;;2.13;;
74626;SDS011;63132;52.268;5.192;2024-01-16T04:05:51;4.60;;;1.43;;
74626;SDS011;63132;52.268;5.192;2024-01-16T04:08:16;3.40;;;1.10;;
74626;SDS011;63132;52.268;5.192;2024-01-16T04:10:42;3.92;;;1.10;;
74626;SDS011;63132;52.268;5.192;2024-01-16T04:13:07;6.53;;;2.37;;
74626;SDS011;63132;52.268;5.192;2024-01-16T04:15:33;7.60;;;2.13;;
74626;SDS011;63132;52.268;5.192;2024-01-16T04:17:58;7.18;;;1.33;;
74626;SDS011;63132;52.268;5.192;2024-01-16T04:22:50;5.32;;;1.15;;
74626;SDS011;63132;52.268;5.192;2024-01-16T04:25:15;7.33;;;1.50;;
74626;SDS011;63132;52.268;5.192;2024-01-16T04:27:40;3.95;;;1.38;;
74626;SDS011;63132;52.268;5.192;2024-01-16T04:30:06;5.87;;;1.07;;
74626;SDS011;63132;52.268;5.192;2024-01-16T04:34:57;7.75;;;1.40;;
74626;SDS011;63132;52.268;5.192;2024-01-16T04:37:23;5.85;;;1.30;;
74626;SDS011;63132;52.268;5.192;2024-01-16T04:39:48;11.07;;;1.60;;
74626;SDS011;63132;52.268;5.192;2024-01-16T04:42:14;6.80;;;1.30;;
74626;SDS011;63132;52.268;5.192;2024-01-16T04:44:39;7.03;;;1.43;;
74626;SDS011;63132;52.268;5.192;2024-01-16T04:47:04;7.87;;;1.70;;
74626;SDS011;63132;52.268;5.192;2024-01-16T04:49:30;8.63;;;1.58;;
74626;SDS011;63132;52.268;5.192;2024-01-16T04:51:56;7.90;;;1.70;;
74626;SDS011;63132;52.268;5.192;2024-01-16T04:54:21;8.37;;;1.43;;
74626;SDS011;63132;52.268;5.192;2024-01-16T04:56:46;7.77;;;1.40;;
74626;SDS011;63132;52.268;5.192;2024-01-16T04:59:12;5.97;;;2.13;;
74626;SDS011;63132;52.268;5.192;2024-01-16T05:01:37;9.00;;;2.50;;
74626;SDS011;63132;52.268;5.192;2024-01-16T05:04:03;9.53;;;2.37;;
74626;SDS011;63132;52.268;5.192;2024-01-16T05:06:28;7.05;;;1.70;;
74626;SDS011;63132;52.268;5.192;2024-01-16T05:08:54;8.82;;;2.00;;
74626;SDS011;63132;52.268;5.192;2024-01-16T05:11:20;12.90;;;3.38;;
74626;SDS011;63132;52.268;5.192;2024-01-16T05:13:46;14.95;;;2.53;;
74626;SDS011;63132;52.268;5.192;2024-01-16T05:16:11;9.30;;;2.17;;
74626;SDS011;63132;52.268;5.192;2024-01-16T05:18:36;7.33;;;2.00;;
74626;SDS011;63132;52.268;5.192;2024-01-16T05:21:01;10.00;;;3.47;;
74626;SDS011;63132;52.268;5.192;2024-01-16T05:23:27;10.15;;;2.00;;
74626;SDS011;63132;52.268;5.192;2024-01-16T05:25:52;7.97;;;2.10;;
74626;SDS011;63132;52.268;5.192;2024-01-16T05:28:18;12.53;;;2.70;;
74626;SDS011;63132;52.268;5.192;2024-01-16T05:30:43;7.67;;;2.30;;
74626;SDS011;63132;52.268;5.192;2024-01-16T05:33:08;10.07;;;2.00;;
74626;SDS011;63132;52.268;5.192;2024-01-16T05:35:34;9.60;;;2.17;;
74626;SDS011;63132;52.268;5.192;2024-01-16T05:37:59;9.10;;;2.27;;
74626;SDS011;63132;52.268;5.192;2024-01-16T05:40:24;8.40;;;2.37;;
74626;SDS011;63132;52.268;5.192;2024-01-16T05:42:50;8.65;;;1.83;;
74626;SDS011;63132;52.268;5.192;2024-01-16T05:45:16;9.23;;;2.30;;
74626;SDS011;63132;52.268;5.192;2024-01-16T05:47:42;10.10;;;2.83;;
74626;SDS011;63132;52.268;5.192;2024-01-16T05:50:08;8.50;;;2.20;;
74626;SDS011;63132;52.268;5.192;2024-01-16T05:52:34;9.50;;;2.53;;
74626;SDS011;63132;52.268;5.192;2024-01-16T05:54:59;9.02;;;2.50;;
74626;SDS011;63132;52.268;5.192;2024-01-16T05:57:25;7.90;;;2.25;;
74626;SDS011;63132;52.268;5.192;2024-01-16T05:59:50;13.98;;;2.53;;
74626;SDS011;63132;52.268;5.192;2024-01-16T06:02:16;13.38;;;2.83;;
74626;SDS011;63132;52.268;5.192;2024-01-16T06:04:42;10.00;;;2.60;;
74626;SDS011;63132;52.268;5.192;2024-01-16T06:07:07;5.37;;;1.80;;
74626;SDS011;63132;52.268;5.192;2024-01-16T06:09:33;10.35;;;1.88;;
74626;SDS011;63132;52.268;5.192;2024-01-16T06:12:03;8.95;;;2.33;;
74626;SDS011;63132;52.268;5.192;2024-01-16T06:14:28;15.25;;;3.35;;
74626;SDS011;63132;52.268;5.192;2024-01-16T06:16:54;13.80;;;2.47;;
74626;SDS011;63132;52.268;5.192;2024-01-16T06:19:19;11.30;;;3.57;;
74626;SDS011;63132;52.268;5.192;2024-01-16T06:21:44;8.80;;;2.50;;
74626;SDS011;63132;52.268;5.192;2024-01-16T06:24:09;4.90;;;3.00;;
74626;SDS011;63132;52.268;5.192;2024-01-16T06:26:36;11.45;;;2.42;;
74626;SDS011;63132;52.268;5.192;2024-01-16T06:29:01;13.07;;;2.40;;
74626;SDS011;63132;52.268;5.192;2024-01-16T06:31:27;6.13;;;1.93;;
74626;SDS011;63132;52.268;5.192;2024-01-16T06:33:52;4.30;;;1.80;;
74626;SDS011;63132;52.268;5.192;2024-01-16T06:36:17;5.63;;;1.60;;
74626;SDS011;63132;52.268;5.192;2024-01-16T06:38:42;7.07;;;1.70;;
74626;SDS011;63132;52.268;5.192;2024-01-16T06:41:08;3.47;;;1.80;;
74626;SDS011;63132;52.268;5.192;2024-01-16T06:43:33;4.90;;;2.07;;
74626;SDS011;63132;52.268;5.192;2024-01-16T06:45:58;3.70;;;1.40;;
74626;SDS011;63132;52.268;5.192;2024-01-16T06:48:24;4.43;;;1.80;;
74626;SDS011;63132;52.268;5.192;2024-01-16T06:50:51;6.70;;;2.03;;
74626;SDS011;63132;52.268;5.192;2024-01-16T06:53:16;4.57;;;2.30;;
74626;SDS011;63132;52.268;5.192;2024-01-16T06:55:42;9.60;;;2.30;;
74626;SDS011;63132;52.268;5.192;2024-01-16T06:58:07;7.67;;;2.60;;
74626;SDS011;63132;52.268;5.192;2024-01-16T07:00:34;8.88;;;3.15;;
74626;SDS011;63132;52.268;5.192;2024-01-16T07:03:00;7.43;;;3.15;;
74626;SDS011;63132;52.268;5.192;2024-01-16T07:05:25;8.77;;;2.97;;
74626;SDS011;63132;52.268;5.192;2024-01-16T07:07:50;8.87;;;2.93;;
74626;SDS011;63132;52.268;5.192;2024-01-16T07:10:16;5.55;;;3.10;;
74626;SDS011;63132;52.268;5.192;2024-01-16T07:12:47;7.47;;;3.28;;
74626;SDS011;63132;52.268;5.192;2024-01-16T07:15:14;5.05;;;3.28;;
74626;SDS011;63132;52.268;5.192;2024-01-16T07:17:40;9.80;;;3.55;;
74626;SDS011;63132;52.268;5.192;2024-01-16T07:20:05;13.98;;;3.67;;
74626;SDS011;63132;52.268;5.192;2024-01-16T07:22:32;8.82;;;4.22;;
74626;SDS011;63132;52.268;5.192;2024-01-16T07:24:58;8.43;;;3.13;;
74626;SDS011;63132;52.268;5.192;2024-01-16T07:27:24;12.17;;;3.80;;
74626;SDS011;63132;52.268;5.192;2024-01-16T07:29:49;12.40;;;3.70;;
74626;SDS011;63132;52.268;5.192;2024-01-16T07:32:14;10.63;;;4.20;;
74626;SDS011;63132;52.268;5.192;2024-01-16T07:34:40;10.07;;;3.63;;
74626;SDS011;63132;52.268;5.192;2024-01-16T07:37:05;5.63;;;2.93;;
74626;SDS011;63132;52.268;5.192;2024-01-16T07:39:30;11.23;;;4.03;;
74626;SDS011;63132;52.268;5.192;2024-01-16T07:41:55;10.80;;;4.80;;
74626;SDS011;63132;52.268;5.192;2024-01-16T07:44:21;10.43;;;4.70;;
74626;SDS011;63132;52.268;5.192;2024-01-16T07:46:46;12.83;;;4.57;;
74626;SDS011;63132;52.268;5.192;2024-01-16T07:49:11;7.30;;;4.43;;
74626;SDS011;63132;52.268;5.192;2024-01-16T07:51:37;9.77;;;4.33;;
74626;SDS011;63132;52.268;5.192;2024-01-16T07:54:06;11.63;;;4.40;;
74626;SDS011;63132;52.268;5.192;2024-01-16T07:56:32;10.60;;;4.20;;
74626;SDS011;63132;52.268;5.192;2024-01-16T07:58:59;14.50;;;4.20;;
74626;SDS011;63132;52.268;5.192;2024-01-16T08:01:24;13.32;;;4.38;;
74626;SDS011;63132;52.268;5.192;2024-01-16T08:03:49;9.60;;;4.23;;
74626;SDS011;63132;52.268;5.192;2024-01-16T08:06:15;9.07;;;4.40;;
74626;SDS011;63132;52.268;5.192;2024-01-16T08:08:40;9.40;;;4.57;;
74626;SDS011;63132;52.268;5.192;2024-01-16T08:11:06;16.42;;;6.75;;
74626;SDS011;63132;52.268;5.192;2024-01-16T08:13:32;25.45;;;8.05;;
74626;SDS011;63132;52.268;5.192;2024-01-16T08:15:57;13.70;;;5.70;;
74626;SDS011;63132;52.268;5.192;2024-01-16T08:18:23;13.33;;;5.70;;
74626;SDS011;63132;52.268;5.192;2024-01-16T08:20:48;11.47;;;5.07;;
74626;SDS011;63132;52.268;5.192;2024-01-16T08:23:13;21.73;;;7.27;;
74626;SDS011;63132;52.268;5.192;2024-01-16T08:25:39;18.17;;;8.17;;
74626;SDS011;63132;52.268;5.192;2024-01-16T08:28:04;21.97;;;8.20;;
74626;SDS011;63132;52.268;5.192;2024-01-16T08:30:30;21.85;;;8.70;;
74626;SDS011;63132;52.268;5.192;2024-01-16T08:32:55;23.35;;;8.30;;
74626;SDS011;63132;52.268;5.192;2024-01-16T08:35:21;24.03;;;7.57;;
74626;SDS011;63132;52.268;5.192;2024-01-16T08:37:47;16.77;;;8.05;;
74626;SDS011;63132;52.268;5.192;2024-01-16T08:40:12;18.70;;;7.35;;
74626;SDS011;63132;52.268;5.192;2024-01-16T08:42:38;26.10;;;7.77;;
74626;SDS011;63132;52.268;5.192;2024-01-16T08:45:03;20.00;;;7.80;;
74626;SDS011;63132;52.268;5.192;2024-01-16T08:47:30;20.92;;;8.10;;
74626;SDS011;63132;52.268;5.192;2024-01-16T08:49:56;15.05;;;7.80;;
74626;SDS011;63132;52.268;5.192;2024-01-16T08:52:21;21.25;;;6.75;;
74626;SDS011;63132;52.268;5.192;2024-01-16T08:54:47;17.60;;;7.07;;
74626;SDS011;63132;52.268;5.192;2024-01-16T08:59:38;16.73;;;6.47;;
74626;SDS011;63132;52.268;5.192;2024-01-16T09:02:04;18.50;;;7.40;;
74626;SDS011;63132;52.268;5.192;2024-01-16T09:04:30;15.25;;;7.28;;
74626;SDS011;63132;52.268;5.192;2024-01-16T09:06:55;18.93;;;7.20;;
74626;SDS011;63132;52.268;5.192;2024-01-16T09:09:20;20.63;;;8.03;;
74626;SDS011;63132;52.268;5.192;2024-01-16T09:11:46;15.25;;;5.78;;
74626;SDS011;63132;52.268;5.192;2024-01-16T09:14:11;24.60;;;7.43;;
74626;SDS011;63132;52.268;5.192;2024-01-16T09:16:36;16.10;;;5.93;;
74626;SDS011;63132;52.268;5.192;2024-01-16T09:19:02;36.87;;;8.60;;
74626;SDS011;63132;52.268;5.192;2024-01-16T09:21:27;14.70;;;4.63;;
74626;SDS011;63132;52.268;5.192;2024-01-16T09:23:53;14.68;;;5.70;;
74626;SDS011;63132;52.268;5.192;2024-01-16T09:26:18;9.75;;;4.55;;
74626;SDS011;63132;52.268;5.192;2024-01-16T09:28:44;19.63;;;5.80;;
74626;SDS011;63132;52.268;5.192;2024-01-16T09:31:09;17.57;;;4.70;;
74626;SDS011;63132;52.268;5.192;2024-01-16T09:33:34;11.30;;;4.37;;
74626;SDS011;63132;52.268;5.192;2024-01-16T09:36:00;13.63;;;4.30;;
74626;SDS011;63132;52.268;5.192;2024-01-16T09:38:25;13.10;;;4.60;;
74626;SDS011;63132;52.268;5.192;2024-01-16T09:40:50;7.70;;;4.00;;
74626;SDS011;63132;52.268;5.192;2024-01-16T09:43:17;14.70;;;4.63;;
74626;SDS011;63132;52.268;5.192;2024-01-16T09:45:43;12.07;;;3.60;;
74626;SDS011;63132;52.268;5.192;2024-01-16T09:48:12;10.55;;;3.90;;
74626;SDS011;63132;52.268;5.192;2024-01-16T09:53:04;13.38;;;3.90;;
74626;SDS011;63132;52.268;5.192;2024-01-16T09:55:29;12.83;;;3.80;;
74626;SDS011;63132;52.268;5.192;2024-01-16T09:57:54;11.53;;;3.80;;
74626;SDS011;63132;52.268;5.192;2024-01-16T10:00:20;11.37;;;3.77;;
74626;SDS011;63132;52.268;5.192;2024-01-16T10:02:46;12.98;;;3.33;;
74626;SDS011;63132;52.268;5.192;2024-01-16T10:05:12;14.00;;;4.05;;
74626;SDS011;63132;52.268;5.192;2024-01-16T10:10:04;15.55;;;3.08;;
74626;SDS011;63132;52.268;5.192;2024-01-16T10:12:30;11.80;;;3.10;;
74626;SDS011;63132;52.268;5.192;2024-01-16T10:17:21;10.95;;;3.15;;
74626;SDS011;63132;52.268;5.192;2024-01-16T10:19:48;9.93;;;2.80;;
74626;SDS011;63132;52.268;5.192;2024-01-16T10:22:19;8.90;;;2.83;;
74626;SDS011;63132;52.268;5.192;2024-01-16T10:24:46;10.75;;;3.35;;
74626;SDS011;63132;52.268;5.192;2024-01-16T10:27:11;7.10;;;2.77;;
74626;SDS011;63132;52.268;5.192;2024-01-16T10:30:02;11.88;;;2.60;;
74626;SDS011;63132;52.268;5.192;2024-01-16T10:32:38;5.03;;;2.45;;
74626;SDS011;63132;52.268;5.192;2024-01-16T10:37:47;7.30;;;2.20;;
74626;SDS011;63132;52.268;5.192;2024-01-16T10:40:17;6.20;;;2.50;;
74626;SDS011;63132;52.268;5.192;2024-01-16T10:42:56;11.27;;;2.72;;
74626;SDS011;63132;52.268;5.192;2024-01-16T10:45:23;6.50;;;2.13;;
74626;SDS011;63132;52.268;5.192;2024-01-16T10:47:49;5.47;;;2.33;;
74626;SDS011;63132;52.268;5.192;2024-01-16T10:50:26;8.30;;;2.60;;
74626;SDS011;63132;52.268;5.192;2024-01-16T10:52:52;8.55;;;2.58;;
74626;SDS011;63132;52.268;5.192;2024-01-16T10:55:21;15.50;;;2.72;;
74626;SDS011;63132;52.268;5.192;2024-01-16T10:57:48;6.75;;;2.30;;
74626;SDS011;63132;52.268;5.192;2024-01-16T11:00:14;6.53;;;1.90;;
74626;SDS011;63132;52.268;5.192;2024-01-16T11:02:50;14.30;;;2.45;;
74626;SDS011;63132;52.268;5.192;2024-01-16T11:05:23;7.57;;;2.15;;
74626;SDS011;63132;52.268;5.192;2024-01-16T11:07:49;6.97;;;2.40;;
74626;SDS011;63132;52.268;5.192;2024-01-16T11:10:16;10.75;;;3.95;;
74626;SDS011;63132;52.268;5.192;2024-01-16T11:12:42;8.55;;;2.28;;
74626;SDS011;63132;52.268;5.192;2024-01-16T11:15:10;10.10;;;2.40;;
74626;SDS011;63132;52.268;5.192;2024-01-16T11:17:37;11.00;;;2.38;;
74626;SDS011;63132;52.268;5.192;2024-01-16T11:20:04;7.20;;;2.33;;
74626;SDS011;63132;52.268;5.192;2024-01-16T11:22:36;9.13;;;2.38;;
74626;SDS011;63132;52.268;5.192;2024-01-16T11:27:41;6.35;;;2.67;;
74626;SDS011;63132;52.268;5.192;2024-01-16T11:30:11;8.07;;;2.45;;
74626;SDS011;63132;52.268;5.192;2024-01-16T11:32:38;3.78;;;1.70;;
74626;SDS011;63132;52.268;5.192;2024-01-16T11:35:09;8.95;;;1.70;;
74626;SDS011;63132;52.268;5.192;2024-01-16T11:37:36;7.18;;;2.55;;
74626;SDS011;63132;52.268;5.192;2024-01-16T11:42:46;4.95;;;2.28;;
74626;SDS011;63132;52.268;5.192;2024-01-16T11:50:37;3.80;;;2.20;;
74626;SDS011;63132;52.268;5.192;2024-01-16T11:53:03;8.27;;;2.08;;
74626;SDS011;63132;52.268;5.192;2024-01-16T11:55:32;9.80;;;2.28;;
74626;SDS011;63132;52.268;5.192;2024-01-16T12:01:05;5.75;;;2.10;;
74626;SDS011;63132;52.268;5.192;2024-01-16T12:03:32;11.70;;;2.75;;
74626;SDS011;63132;52.268;5.192;2024-01-16T12:06:01;6.70;;;2.08;;
74626;SDS011;63132;52.268;5.192;2024-01-16T12:08:27;6.10;;;2.22;;
74626;SDS011;63132;52.268;5.192;2024-01-16T12:13:18;6.75;;;2.17;;
74626;SDS011;63132;52.268;5.192;2024-01-16T12:15:44;7.33;;;2.80;;
74626;SDS011;63132;52.268;5.192;2024-01-16T12:18:09;15.90;;;2.78;;
74626;SDS011;63132;52.268;5.192;2024-01-16T12:20:38;8.93;;;2.28;;
74626;SDS011;63132;52.268;5.192;2024-01-16T12:23:04;8.18;;;2.90;;
74626;SDS011;63132;52.268;5.192;2024-01-16T12:25:31;9.98;;;3.08;;
74626;SDS011;63132;52.268;5.192;2024-01-16T12:27:58;4.93;;;2.30;;
74626;SDS011;63132;52.268;5.192;2024-01-16T12:30:26;5.70;;;2.38;;
74626;SDS011;63132;52.268;5.192;2024-01-16T12:33:02;9.18;;;2.13;;
74626;SDS011;63132;52.268;5.192;2024-01-16T12:35:41;9.55;;;2.28;;
74626;SDS011;63132;52.268;5.192;2024-01-16T12:38:08;9.20;;;2.30;;
74626;SDS011;63132;52.268;5.192;2024-01-16T12:40:35;7.03;;;2.15;;
74626;SDS011;63132;52.268;5.192;2024-01-16T12:43:01;7.35;;;2.20;;
74626;SDS011;63132;52.268;5.192;2024-01-16T12:45:28;6.25;;;2.33;;
74626;SDS011;63132;52.268;5.192;2024-01-16T12:47:54;6.30;;;2.15;;
74626;SDS011;63132;52.268;5.192;2024-01-16T12:50:23;10.60;;;2.22;;
74626;SDS011;63132;52.268;5.192;2024-01-16T12:52:49;4.95;;;2.50;;
74626;SDS011;63132;52.268;5.192;2024-01-16T12:55:15;9.57;;;2.38;;
74626;SDS011;63132;52.268;5.192;2024-01-16T12:57:42;5.38;;;1.67;;
74626;SDS011;63132;52.268;5.192;2024-01-16T13:00:24;6.57;;;1.83;;
74626;SDS011;63132;52.268;5.192;2024-01-16T13:02:50;6.07;;;1.40;;
74626;SDS011;63132;52.268;5.192;2024-01-16T13:05:22;7.63;;;2.75;;
74626;SDS011;63132;52.268;5.192;2024-01-16T13:07:59;7.25;;;1.30;;
74626;SDS011;63132;52.268;5.192;2024-01-16T13:10:27;8.52;;;1.40;;
74626;SDS011;63132;52.268;5.192;2024-01-16T13:13:10;9.27;;;1.42;;
74626;SDS011;63132;52.268;5.192;2024-01-16T13:15:39;5.90;;;1.33;;
74626;SDS011;63132;52.268;5.192;2024-01-16T13:18:05;13.20;;;3.05;;
74626;SDS011;63132;52.268;5.192;2024-01-16T13:20:31;7.30;;;1.95;;
74626;SDS011;63132;52.268;5.192;2024-01-16T13:22:57;13.00;;;2.10;;
74626;SDS011;63132;52.268;5.192;2024-01-16T13:25:22;4.10;;;1.10;;
74626;SDS011;63132;52.268;5.192;2024-01-16T13:27:47;8.13;;;1.70;;
74626;SDS011;63132;52.268;5.192;2024-01-16T13:30:13;3.87;;;0.70;;
74626;SDS011;63132;52.268;5.192;2024-01-16T13:32:39;6.43;;;1.30;;
74626;SDS011;63132;52.268;5.192;2024-01-16T13:35:05;4.22;;;1.13;;
74626;SDS011;63132;52.268;5.192;2024-01-16T13:37:33;2.33;;;0.82;;
74626;SDS011;63132;52.268;5.192;2024-01-16T13:40:02;4.03;;;0.88;;
74626;SDS011;63132;52.268;5.192;2024-01-16T13:42:40;4.57;;;0.90;;
74626;SDS011;63132;52.268;5.192;2024-01-16T13:45:05;8.80;;;1.33;;
74626;SDS011;63132;52.268;5.192;2024-01-16T13:47:31;4.00;;;1.10;;
74626;SDS011;63132;52.268;5.192;2024-01-16T13:49:56;7.18;;;1.08;;
74626;SDS011;63132;52.268;5.192;2024-01-16T13:52:22;6.63;;;1.60;;
74626;SDS011;63132;52.268;5.192;2024-01-16T13:54:47;4.27;;;0.70;;
74626;SDS011;63132;52.268;5.192;2024-01-16T13:57:12;5.53;;;1.00;;
74626;SDS011;63132;52.268;5.192;2024-01-16T13:59:38;2.67;;;0.70;;
74626;SDS011;63132;52.268;5.192;2024-01-16T14:02:03;9.73;;;0.98;;
74626;SDS011;63132;52.268;5.192;2024-01-16T14:04:33;3.70;;;0.80;;
74626;SDS011;63132;52.268;5.192;2024-01-16T14:06:58;5.13;;;0.80;;
74626;SDS011;63132;52.268;5.192;2024-01-16T14:09:24;8.67;;;1.00;;
74626;SDS011;63132;52.268;5.192;2024-01-16T14:11:49;2.57;;;0.70;;
74626;SDS011;63132;52.268;5.192;2024-01-16T14:14:14;7.40;;;0.80;;
74626;SDS011;63132;52.268;5.192;2024-01-16T14:16:40;3.55;;;0.65;;
74626;SDS011;63132;52.268;5.192;2024-01-16T14:19:05;6.10;;;0.97;;
74626;SDS011;63132;52.268;5.192;2024-01-16T14:21:31;5.78;;;1.05;;
74626;SDS011;63132;52.268;5.192;2024-01-16T14:23:56;3.50;;;0.80;;
74626;SDS011;63132;52.268;5.192;2024-01-16T14:26:22;4.90;;;1.20;;
74626;SDS011;63132;52.268;5.192;2024-01-16T14:28:47;4.33;;;1.27;;
74626;SDS011;63132;52.268;5.192;2024-01-16T14:31:15;4.00;;;1.00;;
74626;SDS011;63132;52.268;5.192;2024-01-16T14:33:40;4.63;;;1.00;;
74626;SDS011;63132;52.268;5.192;2024-01-16T14:36:05;6.57;;;1.63;;
74626;SDS011;63132;52.268;5.192;2024-01-16T14:38:31;6.18;;;0.73;;
74626;SDS011;63132;52.268;5.192;2024-01-16T14:40:56;4.30;;;0.90;;
74626;SDS011;63132;52.268;5.192;2024-01-16T14:43:22;4.95;;;1.33;;
74626;SDS011;63132;52.268;5.192;2024-01-16T14:45:47;3.73;;;1.10;;
74626;SDS011;63132;52.268;5.192;2024-01-16T14:48:14;5.37;;;0.90;;
74626;SDS011;63132;52.268;5.192;2024-01-16T14:50:40;3.83;;;0.82;;
74626;SDS011;63132;52.268;5.192;2024-01-16T14:53:06;4.13;;;1.20;;
74626;SDS011;63132;52.268;5.192;2024-01-16T14:55:31;3.17;;;0.97;;
74626;SDS011;63132;52.268;5.192;2024-01-16T14:57:58;4.75;;;1.02;;
74626;SDS011;63132;52.268;5.192;2024-01-16T15:00:25;4.85;;;1.00;;
74626;SDS011;63132;52.268;5.192;2024-01-16T15:02:55;5.28;;;2.03;;
74626;SDS011;63132;52.268;5.192;2024-01-16T15:05:22;2.47;;;0.60;;
74626;SDS011;63132;52.268;5.192;2024-01-16T15:07:48;4.35;;;1.35;;
74626;SDS011;63132;52.268;5.192;2024-01-16T15:10:15;6.00;;;1.00;;
74626;SDS011;63132;52.268;5.192;2024-01-16T15:15:07;3.63;;;1.17;;